Terminal Aerodrome Forecast
Issued by NWS Shreveport, LA

Home | Current Version | Previous Version | Text Only | Print | Product List | Glossary On
Versions: 1 2 3 4 5 6 7 8 9 10 11 12 13
000
FTUS44 KSHV 292300
TAFSHV
TAF
KSHV 292340Z 3000/3024 02005KT P6SM FEW045 SCT250
     FM300100 06004KT P6SM SCT250
     FM300600 11004KT P6SM SCT150 BKN250
     FM301500 14006KT P6SM BKN100
     FM301800 13006KT P6SM FEW040 BKN100=

USA.gov is the U.S. government's official web portal to all federal, state and local government web resources and services.